sensor_id;sensor_type;location;lat;lon;timestamp;pressure;altitude;pressure_sealevel;temperature;humidity
54361;BME280;40258;53.936;27.540;2022-08-21T00:01:33;99207.78;;;18.51;100.00
54361;BME280;40258;53.936;27.540;2022-08-21T00:04:05;99210.22;;;18.56;100.00
54361;BME280;40258;53.936;27.540;2022-08-21T00:06:37;99212.13;;;18.52;100.00
54361;BME280;40258;53.936;27.540;2022-08-21T00:09:07;99216.34;;;18.46;100.00
54361;BME280;40258;53.936;27.540;2022-08-21T00:11:38;99218.75;;;18.51;100.00
54361;BME280;40258;53.936;27.540;2022-08-21T00:14:09;99219.09;;;18.46;100.00
54361;BME280;40258;53.936;27.540;2022-08-21T00:16:38;99221.03;;;18.42;100.00
54361;BME280;40258;53.936;27.540;2022-08-21T00:19:07;99214.25;;;18.36;100.00
54361;BME280;40258;53.936;27.540;2022-08-21T00:21:38;99211.53;;;18.36;100.00
54361;BME280;40258;53.936;27.540;2022-08-21T00:24:06;99209.41;;;18.25;100.00
54361;BME280;40258;53.936;27.540;2022-08-21T00:26:35;99206.25;;;18.23;100.00
54361;BME280;40258;53.936;27.540;2022-08-21T00:29:04;99206.25;;;18.23;100.00
54361;BME280;40258;53.936;27.540;2022-08-21T00:31:33;99209.66;;;18.17;100.00
54361;BME280;40258;53.936;27.540;2022-08-21T00:34:01;99210.38;;;18.13;100.00
54361;BME280;40258;53.936;27.540;2022-08-21T00:36:30;99213.47;;;18.08;100.00
54361;BME280;40258;53.936;27.540;2022-08-21T00:39:00;99206.44;;;18.11;100.00
54361;BME280;40258;53.936;27.540;2022-08-21T00:41:30;99207.59;;;18.10;100.00
54361;BME280;40258;53.936;27.540;2022-08-21T00:43:59;99197.03;;;18.12;100.00
54361;BME280;40258;53.936;27.540;2022-08-21T00:46:27;99198.63;;;18.13;100.00
54361;BME280;40258;53.936;27.540;2022-08-21T00:48:56;99199.00;;;18.11;100.00
54361;BME280;40258;53.936;27.540;2022-08-21T00:51:31;99191.88;;;18.07;100.00
54361;BME280;40258;53.936;27.540;2022-08-21T00:54:02;99193.75;;;18.03;100.00
54361;BME280;40258;53.936;27.540;2022-08-21T00:56:31;99190.63;;;18.04;100.00
54361;BME280;40258;53.936;27.540;2022-08-21T00:59:01;99199.69;;;18.05;100.00
54361;BME280;40258;53.936;27.540;2022-08-21T01:01:29;99189.13;;;18.07;100.00
54361;BME280;40258;53.936;27.540;2022-08-21T01:03:58;99185.22;;;18.08;100.00
54361;BME280;40258;53.936;27.540;2022-08-21T01:06:26;99189.22;;;18.14;100.00
54361;BME280;40258;53.936;27.540;2022-08-21T01:08:55;99185.38;;;18.19;100.00
54361;BME280;40258;53.936;27.540;2022-08-21T01:11:25;99197.41;;;18.10;100.00
54361;BME280;40258;53.936;27.540;2022-08-21T01:13:54;99184.00;;;18.05;100.00
54361;BME280;40258;53.936;27.540;2022-08-21T01:16:22;99195.38;;;18.07;100.00
54361;BME280;40258;53.936;27.540;2022-08-21T01:18:52;99194.59;;;18.07;100.00
54361;BME280;40258;53.936;27.540;2022-08-21T01:21:24;99197.91;;;17.93;100.00
54361;BME280;40258;53.936;27.540;2022-08-21T01:23:56;99193.53;;;17.88;100.00
54361;BME280;40258;53.936;27.540;2022-08-21T01:26:28;99187.19;;;17.84;100.00
54361;BME280;40258;53.936;27.540;2022-08-21T01:29:05;99192.59;;;17.81;100.00
54361;BME280;40258;53.936;27.540;2022-08-21T01:31:37;99192.97;;;17.79;100.00
54361;BME280;40258;53.936;27.540;2022-08-21T01:34:07;99195.63;;;17.72;100.00
54361;BME280;40258;53.936;27.540;2022-08-21T01:36:38;99197.06;;;17.66;100.00
54361;BME280;40258;53.936;27.540;2022-08-21T01:39:06;99200.56;;;17.63;100.00
54361;BME280;40258;53.936;27.540;2022-08-21T01:41:36;99199.38;;;17.64;100.00
54361;BME280;40258;53.936;27.540;2022-08-21T01:44:05;99197.81;;;17.63;100.00
54361;BME280;40258;53.936;27.540;2022-08-21T01:46:34;99196.53;;;17.56;100.00
54361;BME280;40258;53.936;27.540;2022-08-21T01:49:04;99203.16;;;17.55;100.00
54361;BME280;40258;53.936;27.540;2022-08-21T01:51:33;99213.00;;;17.56;100.00
54361;BME280;40258;53.936;27.540;2022-08-21T01:54:03;99207.88;;;17.55;100.00
54361;BME280;40258;53.936;27.540;2022-08-21T01:56:37;99198.28;;;17.45;100.00
54361;BME280;40258;53.936;27.540;2022-08-21T01:59:06;99198.28;;;17.45;100.00
54361;BME280;40258;53.936;27.540;2022-08-21T02:01:35;99191.22;;;17.44;100.00
54361;BME280;40258;53.936;27.540;2022-08-21T02:04:04;99197.53;;;17.48;100.00
54361;BME280;40258;53.936;27.540;2022-08-21T02:06:32;99205.84;;;17.52;100.00
54361;BME280;40258;53.936;27.540;2022-08-21T02:09:04;99201.16;;;17.52;100.00
54361;BME280;40258;53.936;27.540;2022-08-21T02:11:34;99198.41;;;17.52;100.00
54361;BME280;40258;53.936;27.540;2022-08-21T02:14:02;99198.41;;;17.52;100.00
54361;BME280;40258;53.936;27.540;2022-08-21T02:16:32;99201.56;;;17.54;100.00
54361;BME280;40258;53.936;27.540;2022-08-21T02:19:00;99197.72;;;17.59;100.00
54361;BME280;40258;53.936;27.540;2022-08-21T02:21:29;99194.63;;;17.60;100.00
54361;BME280;40258;53.936;27.540;2022-08-21T02:23:58;99191.47;;;17.58;100.00
54361;BME280;40258;53.936;27.540;2022-08-21T02:26:28;99194.94;;;17.55;100.00
54361;BME280;40258;53.936;27.540;2022-08-21T02:28:58;99192.78;;;17.45;100.00
54361;BME280;40258;53.936;27.540;2022-08-21T02:31:26;99199.09;;;17.46;100.00
54361;BME280;40258;53.936;27.540;2022-08-21T02:33:56;99192.00;;;17.45;100.00
54361;BME280;40258;53.936;27.540;2022-08-21T02:36:24;99200.72;;;17.50;100.00
54361;BME280;40258;53.936;27.540;2022-08-21T02:38:53;99195.31;;;17.54;100.00
54361;BME280;40258;53.936;27.540;2022-08-21T02:41:22;99192.06;;;17.48;100.00
54361;BME280;40258;53.936;27.540;2022-08-21T02:43:53;99197.91;;;17.47;100.00
54361;BME280;40258;53.936;27.540;2022-08-21T02:46:22;99206.13;;;17.47;100.00
54361;BME280;40258;53.936;27.540;2022-08-21T02:48:51;99206.94;;;17.47;100.00
54361;BME280;40258;53.936;27.540;2022-08-21T02:51:20;99204.56;;;17.46;100.00
54361;BME280;40258;53.936;27.540;2022-08-21T02:53:50;99203.75;;;17.45;100.00
54361;BME280;40258;53.936;27.540;2022-08-21T02:56:21;99202.91;;;17.41;100.00
54361;BME280;40258;53.936;27.540;2022-08-21T02:58:52;99214.56;;;17.34;100.00
54361;BME280;40258;53.936;27.540;2022-08-21T03:01:21;99213.03;;;17.37;100.00
54361;BME280;40258;53.936;27.540;2022-08-21T03:03:49;99214.63;;;17.38;100.00
54361;BME280;40258;53.936;27.540;2022-08-21T03:06:23;99206.03;;;17.39;100.00
54361;BME280;40258;53.936;27.540;2022-08-21T03:08:52;99206.94;;;17.47;100.00
54361;BME280;40258;53.936;27.540;2022-08-21T03:11:20;99203.03;;;17.48;100.00
54361;BME280;40258;53.936;27.540;2022-08-21T03:13:49;99216.31;;;17.46;100.00
54361;BME280;40258;53.936;27.540;2022-08-21T03:16:19;99215.97;;;17.48;100.00
54361;BME280;40258;53.936;27.540;2022-08-21T03:18:48;99222.69;;;17.50;100.00
54361;BME280;40258;53.936;27.540;2022-08-21T03:21:17;99221.22;;;17.56;100.00
54361;BME280;40258;53.936;27.540;2022-08-21T03:23:45;99226.56;;;17.49;100.00
54361;BME280;40258;53.936;27.540;2022-08-21T03:26:14;99231.31;;;17.52;100.00
54361;BME280;40258;53.936;27.540;2022-08-21T03:28:42;99227.84;;;17.55;100.00
54361;BME280;40258;53.936;27.540;2022-08-21T03:31:11;99231.31;;;17.52;100.00
54361;BME280;40258;53.936;27.540;2022-08-21T03:33:41;99232.06;;;17.49;100.00
54361;BME280;40258;53.936;27.540;2022-08-21T03:36:10;99226.19;;;17.51;100.00
54361;BME280;40258;53.936;27.540;2022-08-21T03:38:39;99236.81;;;17.52;100.00
54361;BME280;40258;53.936;27.540;2022-08-21T03:41:08;99231.75;;;17.54;100.00
54361;BME280;40258;53.936;27.540;2022-08-21T03:43:37;99239.25;;;17.57;100.00
54361;BME280;40258;53.936;27.540;2022-08-21T03:46:06;99238.50;;;17.60;100.00
54361;BME280;40258;53.936;27.540;2022-08-21T03:48:36;99230.78;;;17.66;100.00
54361;BME280;40258;53.936;27.540;2022-08-21T03:51:07;99234.88;;;17.76;100.00
54361;BME280;40258;53.936;27.540;2022-08-21T03:53:35;99231.09;;;17.84;100.00
54361;BME280;40258;53.936;27.540;2022-08-21T03:56:05;99232.63;;;17.82;100.00
54361;BME280;40258;53.936;27.540;2022-08-21T03:58:34;99227.19;;;17.85;100.00
54361;BME280;40258;53.936;27.540;2022-08-21T04:01:04;99220.84;;;17.81;100.00
54361;BME280;40258;53.936;27.540;2022-08-21T04:03:36;99219.09;;;17.69;100.00
54361;BME280;40258;53.936;27.540;2022-08-21T04:06:07;99208.78;;;17.63;100.00
54361;BME280;40258;53.936;27.540;2022-08-21T04:08:36;99230.97;;;17.77;100.00
54361;BME280;40258;53.936;27.540;2022-08-21T04:11:06;99220.84;;;17.81;100.00
54361;BME280;40258;53.936;27.540;2022-08-21T04:13:34;99232.47;;;17.94;100.00
54361;BME280;40258;53.936;27.540;2022-08-21T04:16:04;99230.63;;;18.02;100.00
54361;BME280;40258;53.936;27.540;2022-08-21T04:18:33;99234.53;;;18.01;100.00
54361;BME280;40258;53.936;27.540;2022-08-21T04:21:02;99239.28;;;18.04;100.00
54361;BME280;40258;53.936;27.540;2022-08-21T04:23:33;99240.75;;;17.98;100.00
54361;BME280;40258;53.936;27.540;2022-08-21T04:26:02;99240.44;;;18.03;100.00
54361;BME280;40258;53.936;27.540;2022-08-21T04:28:31;99235.47;;;18.12;100.00
54361;BME280;40258;53.936;27.540;2022-08-21T04:31:00;99234.00;;;18.18;100.00
54361;BME280;40258;53.936;27.540;2022-08-21T04:33:29;99244.94;;;18.14;100.00
54361;BME280;40258;53.936;27.540;2022-08-21T04:35:57;99247.00;;;18.21;100.00
54361;BME280;40258;53.936;27.540;2022-08-21T04:38:26;99236.13;;;18.28;100.00
54361;BME280;40258;53.936;27.540;2022-08-21T04:40:56;99237.13;;;18.17;100.00
54361;BME280;40258;53.936;27.540;2022-08-21T04:43:25;99243.41;;;18.17;100.00
54361;BME280;40258;53.936;27.540;2022-08-21T04:45:55;99236.69;;;18.14;100.00
54361;BME280;40258;53.936;27.540;2022-08-21T04:48:23;99234.97;;;18.29;100.00
54361;BME280;40258;53.936;27.540;2022-08-21T04:50:59;99240.56;;;18.37;100.00
54361;BME280;40258;53.936;27.540;2022-08-21T04:53:34;99235.38;;;18.58;99.61
54361;BME280;40258;53.936;27.540;2022-08-21T04:56:09;99235.34;;;18.85;97.53
54361;BME280;40258;53.936;27.540;2022-08-21T04:58:42;99229.69;;;19.04;96.04
54361;BME280;40258;53.936;27.540;2022-08-21T05:01:19;99236.97;;;19.24;94.80
54361;BME280;40258;53.936;27.540;2022-08-21T05:03:51;99227.25;;;19.33;93.34
54361;BME280;40258;53.936;27.540;2022-08-21T05:06:22;99230.44;;;19.35;92.64
54361;BME280;40258;53.936;27.540;2022-08-21T05:08:53;99234.84;;;19.47;91.79
54361;BME280;40258;53.936;27.540;2022-08-21T05:11:25;99224.59;;;19.40;92.26
54361;BME280;40258;53.936;27.540;2022-08-21T05:13:54;99227.69;;;19.35;92.63
54361;BME280;40258;53.936;27.540;2022-08-21T05:16:23;99227.47;;;19.17;93.26
54361;BME280;40258;53.936;27.540;2022-08-21T05:18:51;99226.34;;;19.22;93.16
54361;BME280;40258;53.936;27.540;2022-08-21T05:21:20;99225.19;;;19.23;92.87
54361;BME280;40258;53.936;27.540;2022-08-21T05:23:49;99233.19;;;19.35;92.37
54361;BME280;40258;53.936;27.540;2022-08-21T05:26:17;99229.34;;;19.47;91.55
54361;BME280;40258;53.936;27.540;2022-08-21T05:28:47;99227.81;;;19.50;90.77
54361;BME280;40258;53.936;27.540;2022-08-21T05:31:16;99225.94;;;19.20;92.59
54361;BME280;40258;53.936;27.540;2022-08-21T05:33:44;99224.75;;;19.21;93.28
54361;BME280;40258;53.936;27.540;2022-08-21T05:36:13;99223.47;;;19.49;91.55
54361;BME280;40258;53.936;27.540;2022-08-21T05:38:41;99221.22;;;19.58;90.86
54361;BME280;40258;53.936;27.540;2022-08-21T05:41:10;99231.63;;;19.38;91.30
54361;BME280;40258;53.936;27.540;2022-08-21T05:43:39;99218.75;;;19.49;91.05
54361;BME280;40258;53.936;27.540;2022-08-21T05:46:09;99222.38;;;19.57;90.63
54361;BME280;40258;53.936;27.540;2022-08-21T05:48:38;99213.81;;;19.66;90.13
54361;BME280;40258;53.936;27.540;2022-08-21T05:51:10;99205.84;;;19.57;89.83
54361;BME280;40258;53.936;27.540;2022-08-21T05:53:40;99209.66;;;19.83;88.97
54361;BME280;40258;53.936;27.540;2022-08-21T05:56:10;99207.09;;;20.11;87.82
54361;BME280;40258;53.936;27.540;2022-08-21T05:58:39;99210.78;;;20.30;85.25
54361;BME280;40258;53.936;27.540;2022-08-21T06:01:09;99204.88;;;20.28;85.41
54361;BME280;40258;53.936;27.540;2022-08-21T06:03:40;99208.06;;;20.34;85.98
54361;BME280;40258;53.936;27.540;2022-08-21T06:06:09;99202.53;;;20.34;85.66
54361;BME280;40258;53.936;27.540;2022-08-21T06:08:38;99197.81;;;20.31;85.89
54361;BME280;40258;53.936;27.540;2022-08-21T06:11:06;99196.97;;;20.23;85.74
54361;BME280;40258;53.936;27.540;2022-08-21T06:13:36;99211.19;;;20.32;85.94
54361;BME280;40258;53.936;27.540;2022-08-21T06:16:10;99195.22;;;20.00;87.13
54361;BME280;40258;53.936;27.540;2022-08-21T06:18:40;99197.31;;;20.18;86.80
54361;BME280;40258;53.936;27.540;2022-08-21T06:21:09;99193.16;;;20.45;85.12
54361;BME280;40258;53.936;27.540;2022-08-21T06:23:38;99198.09;;;20.88;83.15
54361;BME280;40258;53.936;27.540;2022-08-21T06:26:08;99189.47;;;21.04;82.55
54361;BME280;40258;53.936;27.540;2022-08-21T06:28:38;99196.53;;;20.87;81.89
54361;BME280;40258;53.936;27.540;2022-08-21T06:31:15;99188.56;;;20.68;82.87
54361;BME280;40258;53.936;27.540;2022-08-21T06:33:45;99183.41;;;20.66;84.08
54361;BME280;40258;53.936;27.540;2022-08-21T06:36:13;99182.00;;;21.01;82.33
54361;BME280;40258;53.936;27.540;2022-08-21T06:38:42;99174.47;;;20.83;82.86
54361;BME280;40258;53.936;27.540;2022-08-21T06:41:11;99173.69;;;20.90;82.80
54361;BME280;40258;53.936;27.540;2022-08-21T06:43:40;99174.16;;;21.21;80.47
54361;BME280;40258;53.936;27.540;2022-08-21T06:46:08;99170.66;;;21.46;80.36
54361;BME280;40258;53.936;27.540;2022-08-21T06:48:39;99170.66;;;21.93;77.37
54361;BME280;40258;53.936;27.540;2022-08-21T06:51:08;99169.88;;;21.96;76.68
54361;BME280;40258;53.936;27.540;2022-08-21T06:53:36;99169.47;;;21.72;77.27
54361;BME280;40258;53.936;27.540;2022-08-21T06:56:05;99164.34;;;21.60;78.53
54361;BME280;40258;53.936;27.540;2022-08-21T06:58:34;99156.84;;;21.93;77.26
54361;BME280;40258;53.936;27.540;2022-08-21T07:01:03;99153.28;;;22.03;76.67
54361;BME280;40258;53.936;27.540;2022-08-21T07:03:35;99151.72;;;21.95;77.21
54361;BME280;40258;53.936;27.540;2022-08-21T07:06:08;99158.03;;;21.70;76.42
54361;BME280;40258;53.936;27.540;2022-08-21T07:08:38;99151.34;;;21.49;77.74
54361;BME280;40258;53.936;27.540;2022-08-21T07:11:12;99147.34;;;21.32;78.28
54361;BME280;40258;53.936;27.540;2022-08-21T07:13:42;99143.81;;;21.39;78.28
54361;BME280;40258;53.936;27.540;2022-08-21T07:16:11;99152.91;;;21.79;78.49
54361;BME280;40258;53.936;27.540;2022-08-21T07:18:39;99139.81;;;22.16;75.71
54361;BME280;40258;53.936;27.540;2022-08-21T07:21:11;99137.41;;;22.50;74.42
54361;BME280;40258;53.936;27.540;2022-08-21T07:23:44;99142.03;;;22.71;72.48
54361;BME280;40258;53.936;27.540;2022-08-21T07:26:15;99132.97;;;22.64;72.58
54361;BME280;40258;53.936;27.540;2022-08-21T07:28:45;99140.41;;;22.81;73.35
54361;BME280;40258;53.936;27.540;2022-08-21T07:31:15;99129.47;;;22.52;72.42
54361;BME280;40258;53.936;27.540;2022-08-21T07:33:45;99130.19;;;22.67;73.61
54361;BME280;40258;53.936;27.540;2022-08-21T07:36:15;99130.44;;;22.94;72.77
54361;BME280;40258;53.936;27.540;2022-08-21T07:38:44;99133.16;;;23.05;71.31
54361;BME280;40258;53.936;27.540;2022-08-21T07:41:16;99133.94;;;23.13;70.95
54361;BME280;40258;53.936;27.540;2022-08-21T07:43:46;99132.94;;;23.41;69.41
54361;BME280;40258;53.936;27.540;2022-08-21T07:46:15;99126.81;;;23.64;68.23
54361;BME280;40258;53.936;27.540;2022-08-21T07:48:44;99130.72;;;23.71;67.86
54361;BME280;40258;53.936;27.540;2022-08-21T07:51:16;99134.84;;;23.97;67.23
54361;BME280;40258;53.936;27.540;2022-08-21T07:53:49;99137.03;;;23.22;68.55
54361;BME280;40258;53.936;27.540;2022-08-21T07:56:19;99132.44;;;22.90;70.67
54361;BME280;40258;53.936;27.540;2022-08-21T07:58:48;99131.69;;;22.86;71.13
54361;BME280;40258;53.936;27.540;2022-08-21T08:01:18;99133.63;;;23.52;69.29
54361;BME280;40258;53.936;27.540;2022-08-21T08:03:46;99132.66;;;23.74;68.04
54361;BME280;40258;53.936;27.540;2022-08-21T08:06:17;99127.28;;;24.35;66.60
54361;BME280;40258;53.936;27.540;2022-08-21T08:08:46;99136.66;;;24.49;65.34
54361;BME280;40258;53.936;27.540;2022-08-21T08:11:15;99122.66;;;24.25;65.92
54361;BME280;40258;53.936;27.540;2022-08-21T08:13:47;99121.34;;;24.71;66.07
54361;BME280;40258;53.936;27.540;2022-08-21T08:16:16;99113.44;;;24.70;64.47
54361;BME280;40258;53.936;27.540;2022-08-21T08:18:45;99113.69;;;24.45;65.16
54361;BME280;40258;53.936;27.540;2022-08-21T08:21:16;99118.78;;;24.19;65.49
54361;BME280;40258;53.936;27.540;2022-08-21T08:23:45;99115.63;;;24.17;66.48
54361;BME280;40258;53.936;27.540;2022-08-21T08:26:15;99126.38;;;24.46;65.65
54361;BME280;40258;53.936;27.540;2022-08-21T08:28:44;99119.63;;;24.81;64.59
54361;BME280;40258;53.936;27.540;2022-08-21T08:31:14;99122.91;;;24.72;63.45
54361;BME280;40258;53.936;27.540;2022-08-21T08:33:43;99114.06;;;24.81;63.36
54361;BME280;40258;53.936;27.540;2022-08-21T08:36:17;99112.19;;;25.02;63.27
54361;BME280;40258;53.936;27.540;2022-08-21T08:38:47;99115.72;;;25.02;62.34
54361;BME280;40258;53.936;27.540;2022-08-21T08:41:17;99112.03;;;24.54;63.89
54361;BME280;40258;53.936;27.540;2022-08-21T08:43:52;99110.88;;;24.83;64.07
54361;BME280;40258;53.936;27.540;2022-08-21T08:46:29;99108.47;;;24.85;62.87
54361;BME280;40258;53.936;27.540;2022-08-21T08:49:06;99102.13;;;25.11;61.88
54361;BME280;40258;53.936;27.540;2022-08-21T08:51:44;99095.06;;;25.07;62.58
54361;BME280;40258;53.936;27.540;2022-08-21T08:54:18;99082.97;;;25.44;62.04
54361;BME280;40258;53.936;27.540;2022-08-21T08:56:51;99089.84;;;25.60;61.30
54361;BME280;40258;53.936;27.540;2022-08-21T08:59:30;99080.78;;;25.79;60.21
54361;BME280;40258;53.936;27.540;2022-08-21T09:02:01;99089.44;;;26.05;59.57
54361;BME280;40258;53.936;27.540;2022-08-21T09:04:30;99086.03;;;26.17;59.10
54361;BME280;40258;53.936;27.540;2022-08-21T09:07:12;99097.03;;;25.34;60.40
54361;BME280;40258;53.936;27.540;2022-08-21T09:10:12;99089.50;;;25.34;61.08
54361;BME280;40258;53.936;27.540;2022-08-21T09:12:52;99078.34;;;25.38;62.06
54361;BME280;40258;53.936;27.540;2022-08-21T09:15:32;99072.47;;;25.56;61.49
54361;BME280;40258;53.936;27.540;2022-08-21T09:18:30;99075.31;;;25.76;60.12
54361;BME280;40258;53.936;27.540;2022-08-21T09:21:15;99071.13;;;26.28;58.48
54361;BME280;40258;53.936;27.540;2022-08-21T09:23:57;99065.66;;;26.04;58.94
54361;BME280;40258;53.936;27.540;2022-08-21T09:26:45;99067.03;;;26.72;57.44
54361;BME280;40258;53.936;27.540;2022-08-21T09:29:19;99065.03;;;26.89;57.95
54361;BME280;40258;53.936;27.540;2022-08-21T09:31:50;99059.66;;;27.15;55.45
54361;BME280;40258;53.936;27.540;2022-08-21T09:34:26;99059.41;;;27.26;55.14
54361;BME280;40258;53.936;27.540;2022-08-21T09:36:56;99054.97;;;27.61;54.56
54361;BME280;40258;53.936;27.540;2022-08-21T09:39:31;99056.97;;;27.90;53.64
54361;BME280;40258;53.936;27.540;2022-08-21T09:42:03;99060.88;;;28.22;52.72
54361;BME280;40258;53.936;27.540;2022-08-21T09:44:35;99051.50;;;28.16;52.57
54361;BME280;40258;53.936;27.540;2022-08-21T09:47:07;99049.22;;;28.11;52.84
54361;BME280;40258;53.936;27.540;2022-08-21T09:49:41;99048.25;;;28.18;52.53
54361;BME280;40258;53.936;27.540;2022-08-21T09:52:18;99031.56;;;27.72;52.50
54361;BME280;40258;53.936;27.540;2022-08-21T09:54:52;99040.00;;;27.39;53.39
54361;BME280;40258;53.936;27.540;2022-08-21T09:57:25;99035.56;;;27.41;53.92
54361;BME280;40258;53.936;27.540;2022-08-21T10:00:18;99034.44;;;27.39;52.94
54361;BME280;40258;53.936;27.540;2022-08-21T10:02:47;99038.94;;;27.49;53.38
54361;BME280;40258;53.936;27.540;2022-08-21T10:05:19;99036.25;;;27.75;52.99
54361;BME280;40258;53.936;27.540;2022-08-21T10:07:50;99030.53;;;28.24;52.64
54361;BME280;40258;53.936;27.540;2022-08-21T10:10:25;99029.66;;;28.27;50.59
54361;BME280;40258;53.936;27.540;2022-08-21T10:13:01;99022.78;;;28.83;49.86
54361;BME280;40258;53.936;27.540;2022-08-21T10:15:53;99011.00;;;28.50;51.60
54361;BME280;40258;53.936;27.540;2022-08-21T10:18:34;99014.97;;;27.97;50.82
54361;BME280;40258;53.936;27.540;2022-08-21T10:21:14;99021.97;;;28.31;51.34
54361;BME280;40258;53.936;27.540;2022-08-21T10:24:01;99014.56;;;28.25;51.57
54361;BME280;40258;53.936;27.540;2022-08-21T10:26:46;99010.75;;;28.19;51.85
54361;BME280;40258;53.936;27.540;2022-08-21T10:29:31;99005.03;;;28.64;50.35
54361;BME280;40258;53.936;27.540;2022-08-21T10:32:17;99002.84;;;28.17;50.64
54361;BME280;40258;53.936;27.540;2022-08-21T10:34:59;99012.16;;;27.39;54.59
54361;BME280;40258;53.936;27.540;2022-08-21T10:37:41;98997.19;;;27.91;52.64
54361;BME280;40258;53.936;27.540;2022-08-21T10:40:21;99001.53;;;28.35;50.81
54361;BME280;40258;53.936;27.540;2022-08-21T10:43:08;99004.53;;;28.27;51.43
54361;BME280;40258;53.936;27.540;2022-08-21T10:45:52;98997.06;;;28.24;51.65
54361;BME280;40258;53.936;27.540;2022-08-21T10:48:29;98986.34;;;28.87;50.58
54361;BME280;40258;53.936;27.540;2022-08-21T10:51:09;98979.75;;;29.07;49.87
54361;BME280;40258;53.936;27.540;2022-08-21T10:53:58;98997.19;;;29.46;48.01
54361;BME280;40258;53.936;27.540;2022-08-21T10:56:31;98989.13;;;29.48;47.26
54361;BME280;40258;53.936;27.540;2022-08-21T10:59:20;98989.19;;;29.92;47.53
54361;BME280;40258;53.936;27.540;2022-08-21T11:01:57;98982.50;;;29.54;47.82
54361;BME280;40258;53.936;27.540;2022-08-21T11:04:36;98984.84;;;29.56;46.85
54361;BME280;40258;53.936;27.540;2022-08-21T11:07:21;98990.69;;;29.49;47.15
54361;BME280;40258;53.936;27.540;2022-08-21T11:09:52;98982.28;;;29.84;46.43
54361;BME280;40258;53.936;27.540;2022-08-21T11:12:27;98977.03;;;29.51;46.72
54361;BME280;40258;53.936;27.540;2022-08-21T11:15:05;98982.63;;;29.03;47.95
54361;BME280;40258;53.936;27.540;2022-08-21T11:17:43;98984.91;;;28.95;48.97
54361;BME280;40258;53.936;27.540;2022-08-21T11:20:29;98982.66;;;28.90;48.81
54361;BME280;40258;53.936;27.540;2022-08-21T11:23:04;98987.16;;;29.35;48.53
54361;BME280;40258;53.936;27.540;2022-08-21T11:25:37;98989.13;;;29.83;45.94
54361;BME280;40258;53.936;27.540;2022-08-21T11:28:15;98984.84;;;29.56;47.30
54361;BME280;40258;53.936;27.540;2022-08-21T11:31:11;98983.06;;;29.84;46.31
54361;BME280;40258;53.936;27.540;2022-08-21T11:34:04;98988.44;;;29.56;46.87
54361;BME280;40258;53.936;27.540;2022-08-21T11:36:45;98986.38;;;29.35;47.46
54361;BME280;40258;53.936;27.540;2022-08-21T11:39:26;98992.06;;;29.44;47.47
54361;BME280;40258;53.936;27.540;2022-08-21T11:42:06;98990.03;;;29.45;47.10
54361;BME280;40258;53.936;27.540;2022-08-21T11:44:49;98984.97;;;29.04;47.21
54361;BME280;40258;53.936;27.540;2022-08-21T11:47:31;98981.53;;;29.00;46.74
54361;BME280;40258;53.936;27.540;2022-08-21T11:50:15;98987.84;;;29.14;47.16
54361;BME280;40258;53.936;27.540;2022-08-21T11:52:48;98988.22;;;29.03;46.04
54361;BME280;40258;53.936;27.540;2022-08-21T11:55:26;98980.88;;;29.44;46.41
54361;BME280;40258;53.936;27.540;2022-08-21T11:58:01;98979.66;;;29.67;45.34
54361;BME280;40258;53.936;27.540;2022-08-21T12:00:34;98981.19;;;29.11;46.01
54361;BME280;40258;53.936;27.540;2022-08-21T12:03:13;98977.84;;;29.03;46.57
54361;BME280;40258;53.936;27.540;2022-08-21T12:05:53;98982.59;;;29.29;45.60
54361;BME280;40258;53.936;27.540;2022-08-21T12:08:32;98980.63;;;29.73;45.44
54361;BME280;40258;53.936;27.540;2022-08-21T12:11:06;98974.69;;;30.16;45.10
54361;BME280;40258;53.936;27.540;2022-08-21T12:13:40;98975.88;;;29.61;44.52
54361;BME280;40258;53.936;27.540;2022-08-21T12:16:30;98973.84;;;28.53;47.77
54361;BME280;40258;53.936;27.540;2022-08-21T12:19:10;98980.44;;;28.46;48.63
54361;BME280;40258;53.936;27.540;2022-08-21T12:21:51;98979.44;;;28.53;48.04
54361;BME280;40258;53.936;27.540;2022-08-21T12:24:37;98985.00;;;28.27;48.30
54361;BME280;40258;53.936;27.540;2022-08-21T12:27:28;98965.28;;;27.92;48.86
54361;BME280;40258;53.936;27.540;2022-08-21T12:30:00;98979.50;;;27.98;49.21
54361;BME280;40258;53.936;27.540;2022-08-21T12:32:43;98973.44;;;27.57;49.47
54361;BME280;40258;53.936;27.540;2022-08-21T12:35:16;98981.66;;;27.48;49.88
54361;BME280;40258;53.936;27.540;2022-08-21T12:37:49;98979.69;;;27.16;49.59
54361;BME280;40258;53.936;27.540;2022-08-21T12:40:28;98983.59;;;27.02;50.86
54361;BME280;40258;53.936;27.540;2022-08-21T12:43:00;98978.56;;;27.13;50.60
54361;BME280;40258;53.936;27.540;2022-08-21T12:45:33;98982.19;;;27.26;49.77
54361;BME280;40258;53.936;27.540;2022-08-21T12:48:08;98979.63;;;27.49;49.48
54361;BME280;40258;53.936;27.540;2022-08-21T12:50:46;98986.66;;;27.24;49.23
54361;BME280;40258;53.936;27.540;2022-08-21T12:53:27;98984.81;;;27.17;49.70
54361;BME280;40258;53.936;27.540;2022-08-21T12:55:56;98986.22;;;27.25;49.64
54361;BME280;40258;53.936;27.540;2022-08-21T12:58:29;98982.47;;;27.16;49.11
54361;BME280;40258;53.936;27.540;2022-08-21T13:01:05;98999.00;;;27.23;49.00
54361;BME280;40258;53.936;27.540;2022-08-21T13:03:36;98994.56;;;27.09;49.20
54361;BME280;40258;53.936;27.540;2022-08-21T13:06:12;98987.78;;;26.94;49.54
54361;BME280;40258;53.936;27.540;2022-08-21T13:08:44;98988.91;;;27.13;50.20
54361;BME280;40258;53.936;27.540;2022-08-21T13:11:17;98990.91;;;27.12;48.96
54361;BME280;40258;53.936;27.540;2022-08-21T13:13:50;98992.41;;;27.00;49.69